KHFD/HFD METAR and TAF weather

Enter ICAO airport designator
Station Type Date Time Source
KHFD METAR 2019/10/18 10:53 UTC NOAA

KHFD 181053Z 31009G15KT 10SM OVC036 11/03 A2968 RMK AO2 SLP051 T01060033 $


Station Type Date Time Source
KHFD Decoded METAR 2019/10/18 10:53 UTC NOAA

HARTFORD-BRAINARD AIRPORT, CT, United States (KHFD) 41-44N 072-39W 4M
Oct 18, 2019 - 06:53 AM EDT / 2019.10.18 1053 UTC
Wind: from the NW (310 degrees) at 10 MPH (9 KT) gusting to 17 MPH (15 KT):0
Visibility: 10 mile(s):0
Sky conditions: overcast
Temperature: 51.1 F (10.6 C)
Dew Point: 37.9 F (3.3 C)
Relative Humidity: 60%
Pressure (altimeter): 29.68 in. Hg (1005 hPa)
ob: KHFD 181053Z 31009G15KT 10SM OVC036 11/03 A2968 RMK AO2 SLP051 T01060033
cycle: 11

Station Type Date Time Source
KHFD TAF UTC NOAA

Error!

Example: see airport list